AIRPORT ID: CO82

DATE: 2024-05-27 ZULU TIME: 22.15 LOCAL TIME: 15.15


METAR CO82 272215Z AUTO VRB04KT 10SM 25/02 A3010

ALTIMETER: A3010 Q1019

DENSITY ALT: 6900 Ft

WIND DIRECT: 70

WIND SPEED: 4 Gust

WIND CONDITIONS:

VISIBILTY: 10SM 9999M

TEMPERATURE: 77 F 25 C

DEW POINT: 35 F 2 C

HUMID: 22%

LCL: Above 5,000 feet

RADIO CHECK: 0

ADVISARIES: 0

GREETINGS: 0

CONVERSATIONS: 0